sensor_id;sensor_type;location;lat;lon;timestamp;pressure;altitude;pressure_sealevel;temperature
34125;BMP280;20110;53.120;5.786;2023-07-16T00:01:54;100650.56;;;23.47
34125;BMP280;20110;53.120;5.786;2023-07-16T00:04:20;100625.75;;;23.23
34125;BMP280;20110;53.120;5.786;2023-07-16T00:06:46;100667.78;;;23.54
34125;BMP280;20110;53.120;5.786;2023-07-16T00:09:12;100647.78;;;23.61
34125;BMP280;20110;53.120;5.786;2023-07-16T00:11:38;100603.31;;;23.36
34125;BMP280;20110;53.120;5.786;2023-07-16T00:14:04;100643.13;;;23.63
34125;BMP280;20110;53.120;5.786;2023-07-16T00:16:31;100644.38;;;23.60
34125;BMP280;20110;53.120;5.786;2023-07-16T00:18:57;100603.50;;;23.40
34125;BMP280;20110;53.120;5.786;2023-07-16T00:21:24;100646.38;;;23.60
34125;BMP280;20110;53.120;5.786;2023-07-16T00:23:50;100655.91;;;23.61
34125;BMP280;20110;53.120;5.786;2023-07-16T00:26:15;100655.91;;;23.61
34125;BMP280;20110;53.120;5.786;2023-07-16T00:28:41;100669.69;;;23.65
34125;BMP280;20110;53.120;5.786;2023-07-16T00:31:07;100657.69;;;23.70
34125;BMP280;20110;53.120;5.786;2023-07-16T00:33:50;100639.66;;;23.61
34125;BMP280;20110;53.120;5.786;2023-07-16T00:36:15;100635.06;;;23.49
34125;BMP280;20110;53.120;5.786;2023-07-16T00:38:41;100609.38;;;23.21
34125;BMP280;20110;53.120;5.786;2023-07-16T00:41:08;100680.22;;;23.59
34125;BMP280;20110;53.120;5.786;2023-07-16T00:43:34;100563.38;;;22.92
34125;BMP280;20110;53.120;5.786;2023-07-16T00:46:00;100642.03;;;23.39
34125;BMP280;20110;53.120;5.786;2023-07-16T00:48:26;100633.44;;;23.58
34125;BMP280;20110;53.120;5.786;2023-07-16T00:50:53;100622.22;;;23.50
34125;BMP280;20110;53.120;5.786;2023-07-16T00:53:20;100648.47;;;23.61
34125;BMP280;20110;53.120;5.786;2023-07-16T00:55:47;100641.72;;;23.62
34125;BMP280;20110;53.120;5.786;2023-07-16T00:58:13;100609.84;;;23.61
34125;BMP280;20110;53.120;5.786;2023-07-16T01:00:40;100651.81;;;23.75
34125;BMP280;20110;53.120;5.786;2023-07-16T01:03:09;100665.56;;;23.79
34125;BMP280;20110;53.120;5.786;2023-07-16T01:08:46;100641.41;;;23.70
34125;BMP280;20110;53.120;5.786;2023-07-16T01:11:13;100665.72;;;23.83
34125;BMP280;20110;53.120;5.786;2023-07-16T01:13:40;100662.78;;;23.77
34125;BMP280;20110;53.120;5.786;2023-07-16T01:16:18;100647.41;;;23.53
34125;BMP280;20110;53.120;5.786;2023-07-16T01:18:43;100627.47;;;23.62
34125;BMP280;20110;53.120;5.786;2023-07-16T01:21:10;100597.97;;;23.38
34125;BMP280;20110;53.120;5.786;2023-07-16T01:27:01;100641.41;;;23.70
34125;BMP280;20110;53.120;5.786;2023-07-16T01:29:35;100616.38;;;23.56
34125;BMP280;20110;53.120;5.786;2023-07-16T01:32:05;100605.78;;;23.62
34125;BMP280;20110;53.120;5.786;2023-07-16T01:34:34;100630.28;;;23.64
34125;BMP280;20110;53.120;5.786;2023-07-16T01:37:03;100622.69;;;23.60
34125;BMP280;20110;53.120;5.786;2023-07-16T01:39:30;100652.25;;;23.85
34125;BMP280;20110;53.120;5.786;2023-07-16T01:41:56;100625.47;;;23.62
34125;BMP280;20110;53.120;5.786;2023-07-16T01:44:23;100624.19;;;23.79
34125;BMP280;20110;53.120;5.786;2023-07-16T01:49:30;100650.16;;;24.15
34125;BMP280;20110;53.120;5.786;2023-07-16T01:51:55;100628.56;;;24.02
34125;BMP280;20110;53.120;5.786;2023-07-16T01:54:21;100620.69;;;24.08
34125;BMP280;20110;53.120;5.786;2023-07-16T01:56:47;100612.63;;;24.10
34125;BMP280;20110;53.120;5.786;2023-07-16T01:59:13;100649.09;;;24.22
34125;BMP280;20110;53.120;5.786;2023-07-16T02:01:39;100664.50;;;24.33
34125;BMP280;20110;53.120;5.786;2023-07-16T02:04:04;100565.78;;;23.76
34125;BMP280;20110;53.120;5.786;2023-07-16T02:06:30;100656.53;;;24.38
34125;BMP280;20110;53.120;5.786;2023-07-16T02:08:56;100626.44;;;24.16
34125;BMP280;20110;53.120;5.786;2023-07-16T02:11:22;100654.53;;;24.22
34125;BMP280;20110;53.120;5.786;2023-07-16T02:13:48;100637.31;;;24.00
34125;BMP280;20110;53.120;5.786;2023-07-16T02:16:14;100659.91;;;24.05
34125;BMP280;20110;53.120;5.786;2023-07-16T02:18:40;100635.84;;;23.81
34125;BMP280;20110;53.120;5.786;2023-07-16T02:21:06;100645.63;;;23.88
34125;BMP280;20110;53.120;5.786;2023-07-16T02:23:32;100594.19;;;23.43
34125;BMP280;20110;53.120;5.786;2023-07-16T02:25:57;100667.28;;;23.73
34125;BMP280;20110;53.120;5.786;2023-07-16T02:28:23;100660.91;;;23.66
34125;BMP280;20110;53.120;5.786;2023-07-16T02:30:50;100591.97;;;23.11
34125;BMP280;20110;53.120;5.786;2023-07-16T02:33:16;100590.22;;;23.01
34125;BMP280;20110;53.120;5.786;2023-07-16T02:35:50;100670.78;;;23.60
34125;BMP280;20110;53.120;5.786;2023-07-16T02:38:17;100662.66;;;23.60
34125;BMP280;20110;53.120;5.786;2023-07-16T02:40:47;100616.56;;;23.44
34125;BMP280;20110;53.120;5.786;2023-07-16T02:43:14;100657.03;;;23.56
34125;BMP280;20110;53.120;5.786;2023-07-16T02:45:40;100641.59;;;23.58
34125;BMP280;20110;53.120;5.786;2023-07-16T02:48:07;100573.91;;;22.86
34125;BMP280;20110;53.120;5.786;2023-07-16T02:50:37;100636.88;;;23.29
34125;BMP280;20110;53.120;5.786;2023-07-16T02:53:07;100647.84;;;23.47
34125;BMP280;20110;53.120;5.786;2023-07-16T02:55:35;100620.19;;;23.35
34125;BMP280;20110;53.120;5.786;2023-07-16T02:58:01;100657.75;;;23.56
34125;BMP280;20110;53.120;5.786;2023-07-16T03:00:31;100661.66;;;23.53
34125;BMP280;20110;53.120;5.786;2023-07-16T03:02:58;100639.56;;;23.29
34125;BMP280;20110;53.120;5.786;2023-07-16T03:05:25;100602.72;;;23.09
34125;BMP280;20110;53.120;5.786;2023-07-16T03:07:51;100586.44;;;22.93
34125;BMP280;20110;53.120;5.786;2023-07-16T03:10:17;100602.88;;;23.26
34125;BMP280;20110;53.120;5.786;2023-07-16T03:12:43;100500.50;;;22.50
34125;BMP280;20110;53.120;5.786;2023-07-16T03:15:09;100631.25;;;23.25
34125;BMP280;20110;53.120;5.786;2023-07-16T03:17:35;100652.34;;;23.42
34125;BMP280;20110;53.120;5.786;2023-07-16T03:20:02;100581.44;;;23.17
34125;BMP280;20110;53.120;5.786;2023-07-16T03:22:31;100630.28;;;23.48
34125;BMP280;20110;53.120;5.786;2023-07-16T03:24:57;100647.09;;;23.76
34125;BMP280;20110;53.120;5.786;2023-07-16T03:27:23;100592.94;;;23.46
34125;BMP280;20110;53.120;5.786;2023-07-16T03:29:49;100630.44;;;23.52
34125;BMP280;20110;53.120;5.786;2023-07-16T03:32:15;100630.63;;;23.56
34125;BMP280;20110;53.120;5.786;2023-07-16T03:34:41;100646.31;;;23.73
34125;BMP280;20110;53.120;5.786;2023-07-16T03:37:06;100672.72;;;23.73
34125;BMP280;20110;53.120;5.786;2023-07-16T03:39:32;100625.59;;;23.35
34125;BMP280;20110;53.120;5.786;2023-07-16T03:41:58;100635.06;;;23.34
34125;BMP280;20110;53.120;5.786;2023-07-16T03:44:24;100654.88;;;23.68
34125;BMP280;20110;53.120;5.786;2023-07-16T03:46:49;100639.03;;;23.62
34125;BMP280;20110;53.120;5.786;2023-07-16T03:49:15;100588.84;;;23.45
34125;BMP280;20110;53.120;5.786;2023-07-16T03:51:41;100621.78;;;23.40
34125;BMP280;20110;53.120;5.786;2023-07-16T03:54:07;100616.53;;;23.15
34125;BMP280;20110;53.120;5.786;2023-07-16T03:56:33;100626.63;;;23.57
34125;BMP280;20110;53.120;5.786;2023-07-16T03:58:58;100644.75;;;23.39
34125;BMP280;20110;53.120;5.786;2023-07-16T04:01:24;100575.69;;;22.95
34125;BMP280;20110;53.120;5.786;2023-07-16T04:03:50;100638.78;;;23.27
34125;BMP280;20110;53.120;5.786;2023-07-16T04:06:16;100645.22;;;23.49
34125;BMP280;20110;53.120;5.786;2023-07-16T04:08:42;100678.97;;;23.46
34125;BMP280;20110;53.120;5.786;2023-07-16T04:11:07;100623.25;;;23.27
34125;BMP280;20110;53.120;5.786;2023-07-16T04:13:34;100623.00;;;23.37
34125;BMP280;20110;53.120;5.786;2023-07-16T04:16:00;100594.09;;;23.12
34125;BMP280;20110;53.120;5.786;2023-07-16T04:18:26;100644.81;;;23.25
34125;BMP280;20110;53.120;5.786;2023-07-16T04:20:52;100593.03;;;23.48
34125;BMP280;20110;53.120;5.786;2023-07-16T04:23:18;100689.97;;;23.79
34125;BMP280;20110;53.120;5.786;2023-07-16T04:25:44;100692.78;;;23.81
34125;BMP280;20110;53.120;5.786;2023-07-16T04:28:11;100665.84;;;24.01
34125;BMP280;20110;53.120;5.786;2023-07-16T04:30:37;100673.00;;;23.95
34125;BMP280;20110;53.120;5.786;2023-07-16T04:33:04;100626.81;;;23.92
34125;BMP280;20110;53.120;5.786;2023-07-16T04:35:31;100622.25;;;23.66
34125;BMP280;20110;53.120;5.786;2023-07-16T04:37:57;100672.31;;;23.94
34125;BMP280;20110;53.120;5.786;2023-07-16T04:40:23;100720.88;;;24.04
34125;BMP280;20110;53.120;5.786;2023-07-16T04:42:49;100701.03;;;24.15
34125;BMP280;20110;53.120;5.786;2023-07-16T04:45:15;100644.81;;;23.86
34125;BMP280;20110;53.120;5.786;2023-07-16T04:47:41;100631.78;;;23.82
34125;BMP280;20110;53.120;5.786;2023-07-16T04:50:07;100663.13;;;24.01
34125;BMP280;20110;53.120;5.786;2023-07-16T04:52:32;100673.34;;;24.34
34125;BMP280;20110;53.120;5.786;2023-07-16T04:54:58;100684.47;;;24.24
34125;BMP280;20110;53.120;5.786;2023-07-16T04:57:24;100701.47;;;24.41
34125;BMP280;20110;53.120;5.786;2023-07-16T04:59:50;100706.63;;;24.34
34125;BMP280;20110;53.120;5.786;2023-07-16T05:02:15;100701.25;;;24.05
34125;BMP280;20110;53.120;5.786;2023-07-16T05:04:42;100662.34;;;23.99
34125;BMP280;20110;53.120;5.786;2023-07-16T05:07:10;100682.13;;;24.01
34125;BMP280;20110;53.120;5.786;2023-07-16T05:09:36;100685.72;;;24.21
34125;BMP280;20110;53.120;5.786;2023-07-16T05:12:02;100745.63;;;24.12
34125;BMP280;20110;53.120;5.786;2023-07-16T05:14:28;100721.34;;;23.69
34125;BMP280;20110;53.120;5.786;2023-07-16T05:16:57;100747.03;;;23.38
34125;BMP280;20110;53.120;5.786;2023-07-16T05:19:24;100674.66;;;22.98
34125;BMP280;20110;53.120;5.786;2023-07-16T05:21:50;100711.56;;;22.50
34125;BMP280;20110;53.120;5.786;2023-07-16T05:24:15;100704.44;;;22.43
34125;BMP280;20110;53.120;5.786;2023-07-16T05:26:41;100737.88;;;23.02
34125;BMP280;20110;53.120;5.786;2023-07-16T05:29:08;100724.09;;;22.98
34125;BMP280;20110;53.120;5.786;2023-07-16T05:31:34;100692.94;;;22.70
34125;BMP280;20110;53.120;5.786;2023-07-16T05:34:00;100714.63;;;22.31
34125;BMP280;20110;53.120;5.786;2023-07-16T05:36:25;100706.94;;;22.39
34125;BMP280;20110;53.120;5.786;2023-07-16T05:38:51;100758.91;;;22.90
34125;BMP280;20110;53.120;5.786;2023-07-16T05:41:17;100734.22;;;23.12
34125;BMP280;20110;53.120;5.786;2023-07-16T05:43:43;100765.09;;;23.77
34125;BMP280;20110;53.120;5.786;2023-07-16T05:46:08;100738.22;;;23.38
34125;BMP280;20110;53.120;5.786;2023-07-16T05:48:34;100732.34;;;23.14
34125;BMP280;20110;53.120;5.786;2023-07-16T05:51:00;100758.75;;;23.43
34125;BMP280;20110;53.120;5.786;2023-07-16T05:53:26;100741.13;;;23.28
34125;BMP280;20110;53.120;5.786;2023-07-16T05:55:52;100709.97;;;23.14
34125;BMP280;20110;53.120;5.786;2023-07-16T05:58:18;100762.69;;;23.40
34125;BMP280;20110;53.120;5.786;2023-07-16T06:00:43;100743.00;;;23.39
34125;BMP280;20110;53.120;5.786;2023-07-16T06:03:09;100769.38;;;23.53
34125;BMP280;20110;53.120;5.786;2023-07-16T06:05:35;100722.16;;;23.28
34125;BMP280;20110;53.120;5.786;2023-07-16T06:08:02;100763.28;;;23.38
34125;BMP280;20110;53.120;5.786;2023-07-16T06:10:28;100735.78;;;23.44
34125;BMP280;20110;53.120;5.786;2023-07-16T06:12:54;100767.13;;;23.76
34125;BMP280;20110;53.120;5.786;2023-07-16T06:15:20;100720.28;;;23.60
34125;BMP280;20110;53.120;5.786;2023-07-16T06:17:46;100790.38;;;24.11
34125;BMP280;20110;53.120;5.786;2023-07-16T06:20:12;100751.63;;;24.24
34125;BMP280;20110;53.120;5.786;2023-07-16T06:22:37;100779.06;;;24.95
34125;BMP280;20110;53.120;5.786;2023-07-16T06:25:04;100769.78;;;24.84
34125;BMP280;20110;53.120;5.786;2023-07-16T06:27:30;100754.75;;;24.65
34125;BMP280;20110;53.120;5.786;2023-07-16T06:29:56;100784.44;;;24.46
34125;BMP280;20110;53.120;5.786;2023-07-16T06:32:22;100744.09;;;24.22
34125;BMP280;20110;53.120;5.786;2023-07-16T06:34:49;100808.44;;;24.67
34125;BMP280;20110;53.120;5.786;2023-07-16T06:37:15;100765.94;;;24.89
34125;BMP280;20110;53.120;5.786;2023-07-16T06:39:40;100771.44;;;24.91
34125;BMP280;20110;53.120;5.786;2023-07-16T06:42:06;100690.84;;;24.47
34125;BMP280;20110;53.120;5.786;2023-07-16T06:44:32;100820.47;;;25.62
34125;BMP280;20110;53.120;5.786;2023-07-16T06:46:58;100779.25;;;25.16
34125;BMP280;20110;53.120;5.786;2023-07-16T06:49:24;100791.19;;;24.60
34125;BMP280;20110;53.120;5.786;2023-07-16T06:51:49;100790.22;;;24.22
34125;BMP280;20110;53.120;5.786;2023-07-16T06:54:15;100830.41;;;24.42
34125;BMP280;20110;53.120;5.786;2023-07-16T06:56:41;100824.47;;;24.29
34125;BMP280;20110;53.120;5.786;2023-07-16T06:59:07;100830.97;;;24.09
34125;BMP280;20110;53.120;5.786;2023-07-16T07:01:33;100773.22;;;23.47
34125;BMP280;20110;53.120;5.786;2023-07-16T07:03:59;100842.00;;;23.83
34125;BMP280;20110;53.120;5.786;2023-07-16T07:06:24;100846.53;;;23.79
34125;BMP280;20110;53.120;5.786;2023-07-16T07:08:52;100853.75;;;23.88
34125;BMP280;20110;53.120;5.786;2023-07-16T07:11:17;100838.81;;;23.73
34125;BMP280;20110;53.120;5.786;2023-07-16T07:13:44;100798.22;;;23.19
34125;BMP280;20110;53.120;5.786;2023-07-16T07:16:10;100863.03;;;23.69
34125;BMP280;20110;53.120;5.786;2023-07-16T07:18:36;100823.34;;;23.62
34125;BMP280;20110;53.120;5.786;2023-07-16T07:21:03;100843.41;;;23.84
34125;BMP280;20110;53.120;5.786;2023-07-16T07:23:29;100843.84;;;23.65
34125;BMP280;20110;53.120;5.786;2023-07-16T07:25:55;100845.03;;;23.76
34125;BMP280;20110;53.120;5.786;2023-07-16T07:28:21;100826.44;;;24.29
34125;BMP280;20110;53.120;5.786;2023-07-16T07:30:47;100752.03;;;24.65
34125;BMP280;20110;53.120;5.786;2023-07-16T07:33:12;100775.38;;;25.21
34125;BMP280;20110;53.120;5.786;2023-07-16T07:35:39;100848.94;;;25.10
34125;BMP280;20110;53.120;5.786;2023-07-16T07:38:06;100822.16;;;25.36
34125;BMP280;20110;53.120;5.786;2023-07-16T07:40:32;100859.63;;;25.21
34125;BMP280;20110;53.120;5.786;2023-07-16T07:42:58;100835.41;;;24.94
34125;BMP280;20110;53.120;5.786;2023-07-16T07:45:24;100775.31;;;24.86
34125;BMP280;20110;53.120;5.786;2023-07-16T07:47:50;100744.56;;;25.33
34125;BMP280;20110;53.120;5.786;2023-07-16T07:50:16;100845.84;;;25.33
34125;BMP280;20110;53.120;5.786;2023-07-16T07:52:42;100888.47;;;25.80
34125;BMP280;20110;53.120;5.786;2023-07-16T07:55:08;100887.28;;;26.38
34125;BMP280;20110;53.120;5.786;2023-07-16T07:57:34;100887.50;;;26.63
34125;BMP280;20110;53.120;5.786;2023-07-16T08:00:00;100835.44;;;26.16
34125;BMP280;20110;53.120;5.786;2023-07-16T08:02:26;100884.81;;;26.26
34125;BMP280;20110;53.120;5.786;2023-07-16T08:04:54;100891.03;;;26.11
34125;BMP280;20110;53.120;5.786;2023-07-16T08:07:20;100886.34;;;26.31
34125;BMP280;20110;53.120;5.786;2023-07-16T08:09:49;100863.59;;;26.05
34125;BMP280;20110;53.120;5.786;2023-07-16T08:12:15;100854.47;;;26.16
34125;BMP280;20110;53.120;5.786;2023-07-16T08:14:41;100892.03;;;26.20
34125;BMP280;20110;53.120;5.786;2023-07-16T08:17:07;100880.28;;;26.15
34125;BMP280;20110;53.120;5.786;2023-07-16T08:19:33;100877.78;;;26.21
34125;BMP280;20110;53.120;5.786;2023-07-16T08:21:59;100835.03;;;26.06
34125;BMP280;20110;53.120;5.786;2023-07-16T08:24:25;100857.31;;;26.57
34125;BMP280;20110;53.120;5.786;2023-07-16T08:26:51;100851.75;;;26.53
34125;BMP280;20110;53.120;5.786;2023-07-16T08:29:17;100842.84;;;26.33
34125;BMP280;20110;53.120;5.786;2023-07-16T08:31:43;100903.19;;;26.45
34125;BMP280;20110;53.120;5.786;2023-07-16T08:34:09;100908.41;;;26.57
34125;BMP280;20110;53.120;5.786;2023-07-16T08:36:36;100837.72;;;25.86
34125;BMP280;20110;53.120;5.786;2023-07-16T08:39:03;100923.03;;;26.48
34125;BMP280;20110;53.120;5.786;2023-07-16T08:41:29;100939.03;;;26.57
34125;BMP280;20110;53.120;5.786;2023-07-16T08:43:56;100897.34;;;26.73
34125;BMP280;20110;53.120;5.786;2023-07-16T08:46:23;100839.31;;;26.48
34125;BMP280;20110;53.120;5.786;2023-07-16T08:48:50;100914.13;;;27.46
34125;BMP280;20110;53.120;5.786;2023-07-16T08:51:16;100840.66;;;27.08
34125;BMP280;20110;53.120;5.786;2023-07-16T08:53:43;100874.00;;;27.29
34125;BMP280;20110;53.120;5.786;2023-07-16T08:56:09;100862.56;;;27.32
34125;BMP280;20110;53.120;5.786;2023-07-16T08:58:36;100933.75;;;28.08
34125;BMP280;20110;53.120;5.786;2023-07-16T09:01:03;100892.53;;;27.97
34125;BMP280;20110;53.120;5.786;2023-07-16T09:03:30;100925.28;;;27.97
34125;BMP280;20110;53.120;5.786;2023-07-16T09:05:56;100926.66;;;27.75
34125;BMP280;20110;53.120;5.786;2023-07-16T09:08:22;100904.41;;;27.41
34125;BMP280;20110;53.120;5.786;2023-07-16T09:10:55;100912.78;;;27.47
34125;BMP280;20110;53.120;5.786;2023-07-16T09:13:22;100946.34;;;27.73
34125;BMP280;20110;53.120;5.786;2023-07-16T09:15:56;100937.47;;;27.73
34125;BMP280;20110;53.120;5.786;2023-07-16T09:18:25;100945.13;;;27.35
34125;BMP280;20110;53.120;5.786;2023-07-16T09:20:58;100950.66;;;27.37
34125;BMP280;20110;53.120;5.786;2023-07-16T09:23:27;100917.28;;;27.38
34125;BMP280;20110;53.120;5.786;2023-07-16T09:25:54;100930.91;;;27.17
34125;BMP280;20110;53.120;5.786;2023-07-16T09:28:20;100855.91;;;26.37
34125;BMP280;20110;53.120;5.786;2023-07-16T09:30:47;100921.94;;;27.14
34125;BMP280;20110;53.120;5.786;2023-07-16T09:33:22;100970.34;;;27.55
34125;BMP280;20110;53.120;5.786;2023-07-16T09:35:50;100945.97;;;27.20
34125;BMP280;20110;53.120;5.786;2023-07-16T09:38:17;100940.06;;;27.47
34125;BMP280;20110;53.120;5.786;2023-07-16T09:40:44;100950.53;;;27.33
34125;BMP280;20110;53.120;5.786;2023-07-16T09:43:12;100966.09;;;27.72
34125;BMP280;20110;53.120;5.786;2023-07-16T09:45:38;100883.50;;;27.69
34125;BMP280;20110;53.120;5.786;2023-07-16T09:48:05;100972.50;;;27.58
34125;BMP280;20110;53.120;5.786;2023-07-16T09:50:35;100984.38;;;27.67
34125;BMP280;20110;53.120;5.786;2023-07-16T09:53:04;101000.56;;;27.83
34125;BMP280;20110;53.120;5.786;2023-07-16T09:55:35;100914.53;;;28.03
34125;BMP280;20110;53.120;5.786;2023-07-16T09:58:08;100984.81;;;27.81
34125;BMP280;20110;53.120;5.786;2023-07-16T10:00:37;100981.63;;;27.45
34125;BMP280;20110;53.120;5.786;2023-07-16T10:03:08;101036.72;;;27.42
34125;BMP280;20110;53.120;5.786;2023-07-16T10:05:37;101033.47;;;27.08
34125;BMP280;20110;53.120;5.786;2023-07-16T10:08:03;100972.91;;;26.52
34125;BMP280;20110;53.120;5.786;2023-07-16T10:10:41;101024.94;;;26.43
34125;BMP280;20110;53.120;5.786;2023-07-16T10:13:11;101057.06;;;26.64
34125;BMP280;20110;53.120;5.786;2023-07-16T10:15:39;100931.09;;;27.03
34125;BMP280;20110;53.120;5.786;2023-07-16T10:18:05;100986.75;;;26.96
34125;BMP280;20110;53.120;5.786;2023-07-16T10:20:38;101052.75;;;27.73
34125;BMP280;20110;53.120;5.786;2023-07-16T10:23:16;101019.59;;;27.39
34125;BMP280;20110;53.120;5.786;2023-07-16T10:25:59;101011.00;;;27.27
34125;BMP280;20110;53.120;5.786;2023-07-16T10:28:25;101038.50;;;27.14
34125;BMP280;20110;53.120;5.786;2023-07-16T10:30:51;101048.91;;;26.82
34125;BMP280;20110;53.120;5.786;2023-07-16T10:33:17;101059.03;;;27.56
34125;BMP280;20110;53.120;5.786;2023-07-16T10:35:45;101070.63;;;28.18
34125;BMP280;20110;53.120;5.786;2023-07-16T10:38:11;101042.38;;;28.33
34125;BMP280;20110;53.120;5.786;2023-07-16T10:40:45;100992.63;;;28.36
34125;BMP280;20110;53.120;5.786;2023-07-16T10:43:12;101084.31;;;28.89
34125;BMP280;20110;53.120;5.786;2023-07-16T10:45:38;101003.84;;;28.70
34125;BMP280;20110;53.120;5.786;2023-07-16T10:48:05;101067.09;;;28.61
34125;BMP280;20110;53.120;5.786;2023-07-16T10:50:35;101100.09;;;28.01
34125;BMP280;20110;53.120;5.786;2023-07-16T10:53:02;101088.47;;;27.79
34125;BMP280;20110;53.120;5.786;2023-07-16T10:55:29;101075.91;;;28.14
34125;BMP280;20110;53.120;5.786;2023-07-16T10:57:57;101076.31;;;28.26
34125;BMP280;20110;53.120;5.786;2023-07-16T11:00:23;101031.19;;;27.60
34125;BMP280;20110;53.120;5.786;2023-07-16T11:02:52;101052.38;;;28.02
34125;BMP280;20110;53.120;5.786;2023-07-16T11:05:19;101042.53;;;28.39
34125;BMP280;20110;53.120;5.786;2023-07-16T11:07:46;101054.56;;;29.80
34125;BMP280;20110;53.120;5.786;2023-07-16T11:10:15;101083.69;;;29.42
34125;BMP280;20110;53.120;5.786;2023-07-16T11:12:42;101057.63;;;29.67
34125;BMP280;20110;53.120;5.786;2023-07-16T11:15:11;101078.63;;;29.05
34125;BMP280;20110;53.120;5.786;2023-07-16T11:17:40;101051.16;;;28.29
34125;BMP280;20110;53.120;5.786;2023-07-16T11:20:09;101084.41;;;28.02
34125;BMP280;20110;53.120;5.786;2023-07-16T11:22:38;101126.44;;;28.58
34125;BMP280;20110;53.120;5.786;2023-07-16T11:25:11;101126.69;;;29.37
34125;BMP280;20110;53.120;5.786;2023-07-16T11:27:40;101140.47;;;30.25
34125;BMP280;20110;53.120;5.786;2023-07-16T11:30:08;101133.13;;;30.04
34125;BMP280;20110;53.120;5.786;2023-07-16T11:32:42;101122.38;;;30.12
34125;BMP280;20110;53.120;5.786;2023-07-16T11:35:16;101054.59;;;29.55
34125;BMP280;20110;53.120;5.786;2023-07-16T11:37:44;101140.00;;;29.25
34125;BMP280;20110;53.120;5.786;2023-07-16T11:40:15;101146.19;;;28.78
34125;BMP280;20110;53.120;5.786;2023-07-16T11:42:42;101153.94;;;28.40
34125;BMP280;20110;53.120;5.786;2023-07-16T11:45:19;101167.00;;;28.44
34125;BMP280;20110;53.120;5.786;2023-07-16T11:47:46;101138.31;;;28.43
34125;BMP280;20110;53.120;5.786;2023-07-16T11:50:13;101151.72;;;29.28
34125;BMP280;20110;53.120;5.786;2023-07-16T11:52:40;101149.16;;;30.15
34125;BMP280;20110;53.120;5.786;2023-07-16T11:55:07;101105.47;;;30.21
34125;BMP280;20110;53.120;5.786;2023-07-16T11:57:34;101011.31;;;29.75
34125;BMP280;20110;53.120;5.786;2023-07-16T12:00:03;101151.25;;;29.61
34125;BMP280;20110;53.120;5.786;2023-07-16T12:02:29;101134.84;;;29.61
34125;BMP280;20110;53.120;5.786;2023-07-16T12:04:55;101098.31;;;29.01
34125;BMP280;20110;53.120;5.786;2023-07-16T12:07:36;101139.31;;;28.53
34125;BMP280;20110;53.120;5.786;2023-07-16T12:10:08;101134.88;;;28.21
34125;BMP280;20110;53.120;5.786;2023-07-16T12:12:34;101167.66;;;28.21
34125;BMP280;20110;53.120;5.786;2023-07-16T12:15:05;101178.84;;;27.89
34125;BMP280;20110;53.120;5.786;2023-07-16T12:17:31;101158.09;;;27.23
34125;BMP280;20110;53.120;5.786;2023-07-16T12:19:56;101175.56;;;26.63
34125;BMP280;20110;53.120;5.786;2023-07-16T12:22:23;101134.31;;;26.20
34125;BMP280;20110;53.120;5.786;2023-07-16T12:24:49;101210.53;;;27.04
34125;BMP280;20110;53.120;5.786;2023-07-16T12:27:15;101212.13;;;27.46
34125;BMP280;20110;53.120;5.786;2023-07-16T12:29:42;101211.50;;;27.48
34125;BMP280;20110;53.120;5.786;2023-07-16T12:32:08;101225.63;;;27.80
34125;BMP280;20110;53.120;5.786;2023-07-16T12:34:34;101228.94;;;28.81
34125;BMP280;20110;53.120;5.786;2023-07-16T12:37:00;101176.91;;;28.77
34125;BMP280;20110;53.120;5.786;2023-07-16T12:39:26;101208.94;;;28.52
34125;BMP280;20110;53.120;5.786;2023-07-16T12:41:52;101189.78;;;28.09
34125;BMP280;20110;53.120;5.786;2023-07-16T12:44:17;101107.91;;;27.50
34125;BMP280;20110;53.120;5.786;2023-07-16T12:46:43;101227.03;;;28.20
34125;BMP280;20110;53.120;5.786;2023-07-16T12:49:09;101183.31;;;28.20
34125;BMP280;20110;53.120;5.786;2023-07-16T12:51:35;101214.75;;;28.63
34125;BMP280;20110;53.120;5.786;2023-07-16T12:54:01;101233.78;;;28.61
34125;BMP280;20110;53.120;5.786;2023-07-16T12:56:27;101212.38;;;28.12
34125;BMP280;20110;53.120;5.786;2023-07-16T12:58:53;101240.78;;;28.24
34125;BMP280;20110;53.120;5.786;2023-07-16T13:01:18;101240.41;;;28.12
34125;BMP280;20110;53.120;5.786;2023-07-16T13:03:44;101245.53;;;27.84
34125;BMP280;20110;53.120;5.786;2023-07-16T13:06:10;101221.78;;;27.49
34125;BMP280;20110;53.120;5.786;2023-07-16T13:08:36;101230.31;;;27.40
34125;BMP280;20110;53.120;5.786;2023-07-16T13:11:02;101197.28;;;26.96
34125;BMP280;20110;53.120;5.786;2023-07-16T13:13:28;101280.06;;;27.58
34125;BMP280;20110;53.120;5.786;2023-07-16T13:15:55;101216.97;;;27.30
34125;BMP280;20110;53.120;5.786;2023-07-16T13:18:20;101272.94;;;28.26
34125;BMP280;20110;53.120;5.786;2023-07-16T13:20:46;101252.19;;;28.38
34125;BMP280;20110;53.120;5.786;2023-07-16T13:23:12;101251.66;;;28.64
34125;BMP280;20110;53.120;5.786;2023-07-16T13:25:38;101284.84;;;28.97
34125;BMP280;20110;53.120;5.786;2023-07-16T13:28:08;101254.88;;;29.01
34125;BMP280;20110;53.120;5.786;2023-07-16T13:30:34;101264.25;;;28.94
34125;BMP280;20110;53.120;5.786;2023-07-16T13:33:00;101255.84;;;28.67
34125;BMP280;20110;53.120;5.786;2023-07-16T13:35:27;101281.06;;;28.24
34125;BMP280;20110;53.120;5.786;2023-07-16T13:37:52;101264.38;;;28.16
34125;BMP280;20110;53.120;5.786;2023-07-16T13:40:18;101267.41;;;28.24
34125;BMP280;20110;53.120;5.786;2023-07-16T13:42:47;101279.50;;;28.38
34125;BMP280;20110;53.120;5.786;2023-07-16T13:45:13;101225.28;;;28.09
34125;BMP280;20110;53.120;5.786;2023-07-16T13:47:40;101251.38;;;28.34
34125;BMP280;20110;53.120;5.786;2023-07-16T13:50:06;101267.22;;;28.81
34125;BMP280;20110;53.120;5.786;2023-07-16T13:52:32;101304.94;;;28.84
34125;BMP280;20110;53.120;5.786;2023-07-16T13:54:58;101306.50;;;28.91
34125;BMP280;20110;53.120;5.786;2023-07-16T13:57:23;101297.13;;;28.96
34125;BMP280;20110;53.120;5.786;2023-07-16T13:59:49;101258.16;;;28.74
34125;BMP280;20110;53.120;5.786;2023-07-16T14:02:15;101274.56;;;28.96
34125;BMP280;20110;53.120;5.786;2023-07-16T14:04:41;101225.72;;;28.43